sensor_id;sensor_type;location;lat;lon;timestamp;pressure;altitude;pressure_sealevel;temperature;humidity
66560;BME280;53413;49.878;8.142;2023-02-26T00:00:15;99741.88;;;-2.09;100.00
66560;BME280;53413;49.878;8.142;2023-02-26T00:02:41;99753.09;;;-2.01;100.00
66560;BME280;53413;49.878;8.142;2023-02-26T00:05:09;99756.53;;;-1.96;99.76
66560;BME280;53413;49.878;8.142;2023-02-26T00:07:34;99750.59;;;-1.92;100.00
66560;BME280;53413;49.878;8.142;2023-02-26T00:09:59;99754.03;;;-1.88;100.00
66560;BME280;53413;49.878;8.142;2023-02-26T00:12:28;99748.06;;;-1.86;99.64
66560;BME280;53413;49.878;8.142;2023-02-26T00:14:54;99747.25;;;-1.83;99.66
66560;BME280;53413;49.878;8.142;2023-02-26T00:20:00;99755.81;;;-1.81;99.38
66560;BME280;53413;49.878;8.142;2023-02-26T00:22:26;99760.06;;;-1.84;99.61
66560;BME280;53413;49.878;8.142;2023-02-26T00:24:52;99763.47;;;-1.89;99.35
66560;BME280;53413;49.878;8.142;2023-02-26T00:27:17;99763.41;;;-1.95;99.66
66560;BME280;53413;49.878;8.142;2023-02-26T00:29:43;99757.34;;;-2.02;99.38
66560;BME280;53413;49.878;8.142;2023-02-26T00:32:10;99764.16;;;-2.05;99.59
66560;BME280;53413;49.878;8.142;2023-02-26T00:34:36;99763.34;;;-2.01;100.00
66560;BME280;53413;49.878;8.142;2023-02-26T00:40:18;99766.94;;;-1.80;99.94
66560;BME280;53413;49.878;8.142;2023-02-26T00:42:45;99767.88;;;-1.67;99.73
66560;BME280;53413;49.878;8.142;2023-02-26T00:45:11;99770.56;;;-1.57;99.54
66560;BME280;53413;49.878;8.142;2023-02-26T00:50:24;99772.38;;;-1.37;97.98
66560;BME280;53413;49.878;8.142;2023-02-26T00:53:14;99774.16;;;-1.28;97.27
66560;BME280;53413;49.878;8.142;2023-02-26T00:55:42;99778.50;;;-1.21;97.43
66560;BME280;53413;49.878;8.142;2023-02-26T00:58:08;99781.09;;;-1.13;97.02
66560;BME280;53413;49.878;8.142;2023-02-26T01:00:34;99777.72;;;-1.06;96.24
66560;BME280;53413;49.878;8.142;2023-02-26T01:03:00;99782.91;;;-0.98;96.94
66560;BME280;53413;49.878;8.142;2023-02-26T01:05:25;99781.25;;;-0.91;95.95
66560;BME280;53413;49.878;8.142;2023-02-26T01:08:00;99789.84;;;-0.85;95.77
66560;BME280;53413;49.878;8.142;2023-02-26T01:10:27;99779.56;;;-0.77;96.21
66560;BME280;53413;49.878;8.142;2023-02-26T01:12:53;99777.88;;;-0.72;95.75
66560;BME280;53413;49.878;8.142;2023-02-26T01:15:21;99792.50;;;-0.66;95.50
66560;BME280;53413;49.878;8.142;2023-02-26T01:18:15;99783.94;;;-0.59;95.33
66560;BME280;53413;49.878;8.142;2023-02-26T01:20:48;99779.66;;;-0.55;95.12
66560;BME280;53413;49.878;8.142;2023-02-26T01:23:22;99778.84;;;-0.50;95.20
66560;BME280;53413;49.878;8.142;2023-02-26T01:28:44;99788.28;;;-0.39;94.52
66560;BME280;53413;49.878;8.142;2023-02-26T01:33:46;99784.00;;;-0.31;94.20
66560;BME280;53413;49.878;8.142;2023-02-26T01:36:23;99785.72;;;-0.28;94.46
66560;BME280;53413;49.878;8.142;2023-02-26T01:39:05;99784.88;;;-0.24;94.17
66560;BME280;53413;49.878;8.142;2023-02-26T01:41:35;99784.03;;;-0.23;93.69
66560;BME280;53413;49.878;8.142;2023-02-26T01:44:16;99779.75;;;-0.21;93.07
66560;BME280;53413;49.878;8.142;2023-02-26T01:49:21;99782.34;;;-0.17;92.92
66560;BME280;53413;49.878;8.142;2023-02-26T01:51:52;99782.34;;;-0.18;92.96
66560;BME280;53413;49.878;8.142;2023-02-26T01:54:20;99785.75;;;-0.18;92.45
66560;BME280;53413;49.878;8.142;2023-02-26T01:56:49;99785.75;;;-0.18;92.39
66560;BME280;53413;49.878;8.142;2023-02-26T01:59:17;99784.06;;;-0.14;92.46
66560;BME280;53413;49.878;8.142;2023-02-26T02:01:48;99793.53;;;-0.07;92.54
66560;BME280;53413;49.878;8.142;2023-02-26T02:04:14;99788.38;;;-0.01;91.93
66560;BME280;53413;49.878;8.142;2023-02-26T02:06:40;99790.94;;;0.04;92.33
66560;BME280;53413;49.878;8.142;2023-02-26T02:09:06;99795.25;;;0.10;92.09
66560;BME280;53413;49.878;8.142;2023-02-26T02:11:33;99787.53;;;0.13;92.02
66560;BME280;53413;49.878;8.142;2023-02-26T02:19:27;99800.44;;;0.28;90.67
66560;BME280;53413;49.878;8.142;2023-02-26T02:30:21;99802.94;;;-0.12;91.80
66560;BME280;53413;49.878;8.142;2023-02-26T02:32:57;99798.63;;;-0.25;92.94
66560;BME280;53413;49.878;8.142;2023-02-26T02:35:28;99800.31;;;-0.35;93.51
66560;BME280;53413;49.878;8.142;2023-02-26T02:38:06;99814.88;;;-0.43;94.29
66560;BME280;53413;49.878;8.142;2023-02-26T02:40:40;99814.00;;;-0.47;94.91
66560;BME280;53413;49.878;8.142;2023-02-26T02:43:12;99814.88;;;-0.48;95.05
66560;BME280;53413;49.878;8.142;2023-02-26T02:46:06;99817.41;;;-0.51;95.69
66560;BME280;53413;49.878;8.142;2023-02-26T02:48:37;99819.13;;;-0.53;96.64
66560;BME280;53413;49.878;8.142;2023-02-26T02:51:10;99824.28;;;-0.55;97.23
66560;BME280;53413;49.878;8.142;2023-02-26T02:56:33;99824.25;;;-0.53;98.62
66560;BME280;53413;49.878;8.142;2023-02-26T02:59:16;99832.03;;;-0.49;100.00
66560;BME280;53413;49.878;8.142;2023-02-26T03:01:44;99832.03;;;-0.42;100.00
66560;BME280;53413;49.878;8.142;2023-02-26T03:04:13;99829.50;;;-0.32;100.00
66560;BME280;53413;49.878;8.142;2023-02-26T03:06:39;99834.69;;;-0.21;100.00
66560;BME280;53413;49.878;8.142;2023-02-26T03:09:07;99829.56;;;-0.10;100.00
66560;BME280;53413;49.878;8.142;2023-02-26T03:11:34;99833.88;;;-0.04;100.00
66560;BME280;53413;49.878;8.142;2023-02-26T03:14:00;99833.88;;;0.02;100.00
66560;BME280;53413;49.878;8.142;2023-02-26T03:19:43;99837.31;;;0.04;100.00
66560;BME280;53413;49.878;8.142;2023-02-26T03:22:23;99839.06;;;0.04;100.00
66560;BME280;53413;49.878;8.142;2023-02-26T03:25:07;99833.03;;;0.00;100.00
66560;BME280;53413;49.878;8.142;2023-02-26T03:28:09;99838.16;;;-0.09;100.00
66560;BME280;53413;49.878;8.142;2023-02-26T03:30:43;99848.41;;;-0.23;100.00
66560;BME280;53413;49.878;8.142;2023-02-26T03:33:18;99853.53;;;-0.36;100.00
66560;BME280;53413;49.878;8.142;2023-02-26T03:35:58;99856.94;;;-0.43;100.00
66560;BME280;53413;49.878;8.142;2023-02-26T03:38:33;99857.75;;;-0.50;100.00
66560;BME280;53413;49.878;8.142;2023-02-26T03:41:26;99868.84;;;-0.60;100.00
66560;BME280;53413;49.878;8.142;2023-02-26T03:43:58;99861.03;;;-0.76;100.00
66560;BME280;53413;49.878;8.142;2023-02-26T03:46:32;99866.97;;;-0.93;100.00
66560;BME280;53413;49.878;8.142;2023-02-26T03:49:03;99875.44;;;-1.04;100.00
66560;BME280;53413;49.878;8.142;2023-02-26T03:51:31;99868.50;;;-1.21;100.00
66560;BME280;53413;49.878;8.142;2023-02-26T03:54:04;99872.66;;;-1.34;100.00
66560;BME280;53413;49.878;8.142;2023-02-26T03:56:36;99870.00;;;-1.48;100.00
66560;BME280;53413;49.878;8.142;2023-02-26T03:59:04;99875.88;;;-1.61;100.00
66560;BME280;53413;49.878;8.142;2023-02-26T04:01:34;99878.34;;;-1.71;100.00
66560;BME280;53413;49.878;8.142;2023-02-26T04:04:08;99882.50;;;-1.83;100.00
66560;BME280;53413;49.878;8.142;2023-02-26T04:06:35;99891.78;;;-1.95;100.00
66560;BME280;53413;49.878;8.142;2023-02-26T04:09:01;99889.97;;;-2.07;100.00
66560;BME280;53413;49.878;8.142;2023-02-26T04:11:28;99893.28;;;-2.17;100.00
66560;BME280;53413;49.878;8.142;2023-02-26T04:13:54;99892.31;;;-2.25;100.00
66560;BME280;53413;49.878;8.142;2023-02-26T04:16:19;99891.34;;;-2.35;100.00
66560;BME280;53413;49.878;8.142;2023-02-26T04:18:45;99899.78;;;-2.44;100.00
66560;BME280;53413;49.878;8.142;2023-02-26T04:21:15;99903.09;;;-2.53;100.00
66560;BME280;53413;49.878;8.142;2023-02-26T04:23:41;99905.53;;;-2.62;100.00
66560;BME280;53413;49.878;8.142;2023-02-26T04:26:06;99907.13;;;-2.70;100.00
66560;BME280;53413;49.878;8.142;2023-02-26T04:28:32;99911.28;;;-2.79;100.00
66560;BME280;53413;49.878;8.142;2023-02-26T04:30:58;99915.50;;;-2.84;100.00
66560;BME280;53413;49.878;8.142;2023-02-26T04:33:24;99913.72;;;-2.86;100.00
66560;BME280;53413;49.878;8.142;2023-02-26T04:35:50;99925.69;;;-2.87;100.00
66560;BME280;53413;49.878;8.142;2023-02-26T04:38:16;99925.69;;;-2.87;100.00
66560;BME280;53413;49.878;8.142;2023-02-26T04:40:41;99929.94;;;-2.89;100.00
66560;BME280;53413;49.878;8.142;2023-02-26T04:43:06;99932.44;;;-2.94;100.00
66560;BME280;53413;49.878;8.142;2023-02-26T04:45:32;99931.47;;;-3.02;100.00
66560;BME280;53413;49.878;8.142;2023-02-26T04:47:57;99938.97;;;-3.11;100.00
66560;BME280;53413;49.878;8.142;2023-02-26T04:50:22;99936.31;;;-3.19;100.00
66560;BME280;53413;49.878;8.142;2023-02-26T04:52:48;99935.34;;;-3.26;100.00
66560;BME280;53413;49.878;8.142;2023-02-26T04:55:13;99943.00;;;-3.27;100.00
66560;BME280;53413;49.878;8.142;2023-02-26T04:57:38;99934.41;;;-3.29;100.00
66560;BME280;53413;49.878;8.142;2023-02-26T05:00:05;99946.41;;;-3.28;100.00
66560;BME280;53413;49.878;8.142;2023-02-26T05:02:32;99947.31;;;-3.25;100.00
66560;BME280;53413;49.878;8.142;2023-02-26T05:04:58;99944.78;;;-3.23;100.00
66560;BME280;53413;49.878;8.142;2023-02-26T05:07:23;99956.00;;;-3.16;100.00
66560;BME280;53413;49.878;8.142;2023-02-26T05:09:48;99952.59;;;-3.15;100.00
66560;BME280;53413;49.878;8.142;2023-02-26T05:12:14;99951.78;;;-3.14;100.00
66560;BME280;53413;49.878;8.142;2023-02-26T05:14:40;99950.88;;;-3.16;100.00
66560;BME280;53413;49.878;8.142;2023-02-26T05:17:05;99963.63;;;-3.21;100.00
66560;BME280;53413;49.878;8.142;2023-02-26T05:19:31;99955.84;;;-3.26;100.00
66560;BME280;53413;49.878;8.142;2023-02-26T05:21:56;99960.84;;;-3.32;100.00
66560;BME280;53413;49.878;8.142;2023-02-26T05:24:22;99973.53;;;-3.40;100.00
66560;BME280;53413;49.878;8.142;2023-02-26T05:26:47;99976.75;;;-3.51;100.00
66560;BME280;53413;49.878;8.142;2023-02-26T05:29:12;99974.06;;;-3.58;100.00
66560;BME280;53413;49.878;8.142;2023-02-26T05:31:38;99976.53;;;-3.62;100.00
66560;BME280;53413;49.878;8.142;2023-02-26T05:34:03;99985.03;;;-3.65;100.00
66560;BME280;53413;49.878;8.142;2023-02-26T05:36:28;99987.53;;;-3.68;100.00
66560;BME280;53413;49.878;8.142;2023-02-26T05:38:54;99984.94;;;-3.69;100.00
66560;BME280;53413;49.878;8.142;2023-02-26T05:41:19;100004.53;;;-3.73;100.00
66560;BME280;53413;49.878;8.142;2023-02-26T05:43:44;100002.78;;;-3.74;100.00
66560;BME280;53413;49.878;8.142;2023-02-26T05:46:10;100008.78;;;-3.72;100.00
66560;BME280;53413;49.878;8.142;2023-02-26T05:48:35;100007.22;;;-3.65;100.00
66560;BME280;53413;49.878;8.142;2023-02-26T05:51:01;100004.72;;;-3.62;100.00
66560;BME280;53413;49.878;8.142;2023-02-26T05:53:27;100011.56;;;-3.61;100.00
66560;BME280;53413;49.878;8.142;2023-02-26T05:55:52;100008.03;;;-3.66;100.00
66560;BME280;53413;49.878;8.142;2023-02-26T05:58:18;100007.19;;;-3.67;100.00
66560;BME280;53413;49.878;8.142;2023-02-26T06:00:44;100009.69;;;-3.70;100.00
66560;BME280;53413;49.878;8.142;2023-02-26T06:03:09;100007.03;;;-3.75;100.00
66560;BME280;53413;49.878;8.142;2023-02-26T06:05:35;100009.56;;;-3.76;100.00
66560;BME280;53413;49.878;8.142;2023-02-26T06:08:02;100009.56;;;-3.76;100.00
66560;BME280;53413;49.878;8.142;2023-02-26T06:10:27;100012.91;;;-3.80;100.00
66560;BME280;53413;49.878;8.142;2023-02-26T06:12:53;100014.53;;;-3.84;100.00
66560;BME280;53413;49.878;8.142;2023-02-26T06:15:18;100023.03;;;-3.87;100.00
66560;BME280;53413;49.878;8.142;2023-02-26T06:17:43;100017.03;;;-3.87;100.00
66560;BME280;53413;49.878;8.142;2023-02-26T06:20:09;100023.03;;;-3.85;100.00
66560;BME280;53413;49.878;8.142;2023-02-26T06:22:35;100026.38;;;-3.89;100.00
66560;BME280;53413;49.878;8.142;2023-02-26T06:25:00;100029.88;;;-3.85;100.00
66560;BME280;53413;49.878;8.142;2023-02-26T06:27:25;100040.06;;;-3.87;100.00
66560;BME280;53413;49.878;8.142;2023-02-26T06:29:51;100040.13;;;-3.85;100.00
66560;BME280;53413;49.878;8.142;2023-02-26T06:32:16;100043.63;;;-3.79;100.00
66560;BME280;53413;49.878;8.142;2023-02-26T06:34:41;100046.19;;;-3.79;100.00
66560;BME280;53413;49.878;8.142;2023-02-26T06:37:07;100043.63;;;-3.79;100.00
66560;BME280;53413;49.878;8.142;2023-02-26T06:39:32;100044.53;;;-3.77;100.00
66560;BME280;53413;49.878;8.142;2023-02-26T06:41:58;100049.88;;;-3.67;100.00
66560;BME280;53413;49.878;8.142;2023-02-26T06:44:23;100058.56;;;-3.59;100.00
66560;BME280;53413;49.878;8.142;2023-02-26T06:46:49;100057.91;;;-3.50;100.00
66560;BME280;53413;49.878;8.142;2023-02-26T06:49:14;100056.41;;;-3.39;100.00
66560;BME280;53413;49.878;8.142;2023-02-26T06:51:40;100062.53;;;-3.29;100.00
66560;BME280;53413;49.878;8.142;2023-02-26T06:54:06;100065.31;;;-3.18;100.00
66560;BME280;53413;49.878;8.142;2023-02-26T06:56:31;100081.75;;;-3.08;100.00
66560;BME280;53413;49.878;8.142;2023-02-26T06:58:56;100089.59;;;-3.01;100.00
66560;BME280;53413;49.878;8.142;2023-02-26T07:01:22;100093.16;;;-2.91;100.00
66560;BME280;53413;49.878;8.142;2023-02-26T07:03:48;100100.25;;;-2.76;100.00
66560;BME280;53413;49.878;8.142;2023-02-26T07:06:14;100103.16;;;-2.57;100.00
66560;BME280;53413;49.878;8.142;2023-02-26T07:08:39;100101.75;;;-2.38;100.00
66560;BME280;53413;49.878;8.142;2023-02-26T07:11:05;100103.81;;;-2.15;100.00
66560;BME280;53413;49.878;8.142;2023-02-26T07:13:32;100098.19;;;-1.90;100.00
66560;BME280;53413;49.878;8.142;2023-02-26T07:15:58;100115.63;;;-1.65;100.00
66560;BME280;53413;49.878;8.142;2023-02-26T07:18:23;100123.69;;;-1.39;100.00
66560;BME280;53413;49.878;8.142;2023-02-26T07:20:49;100125.75;;;-1.09;100.00
66560;BME280;53413;49.878;8.142;2023-02-26T07:23:15;100114.97;;;-0.72;100.00
66560;BME280;53413;49.878;8.142;2023-02-26T07:25:40;100131.53;;;-0.42;100.00
66560;BME280;53413;49.878;8.142;2023-02-26T07:28:05;100134.31;;;-0.17;100.00
66560;BME280;53413;49.878;8.142;2023-02-26T07:30:31;100143.84;;;-0.04;100.00
66560;BME280;53413;49.878;8.142;2023-02-26T07:32:57;100143.84;;;-0.04;100.00
66560;BME280;53413;49.878;8.142;2023-02-26T07:35:22;100146.47;;;-0.02;100.00
66560;BME280;53413;49.878;8.142;2023-02-26T07:37:48;100148.28;;;0.19;100.00
66560;BME280;53413;49.878;8.142;2023-02-26T07:40:14;100144.44;;;1.25;100.00
66560;BME280;53413;49.878;8.142;2023-02-26T07:42:39;100149.66;;;2.17;100.00
66560;BME280;53413;49.878;8.142;2023-02-26T07:45:05;100158.06;;;2.87;95.95
66560;BME280;53413;49.878;8.142;2023-02-26T07:47:32;100154.63;;;4.12;90.01
66560;BME280;53413;49.878;8.142;2023-02-26T07:49:57;100154.06;;;8.00;71.29
66560;BME280;53413;49.878;8.142;2023-02-26T07:52:22;62379.06;;;-147.87;100.00
66560;BME280;53413;49.878;8.142;2023-02-26T07:54:48;100131.72;;;11.87;52.38
66560;BME280;53413;49.878;8.142;2023-02-26T07:57:13;100139.41;;;9.78;52.69
66560;BME280;53413;49.878;8.142;2023-02-26T07:59:38;100140.78;;;9.63;53.43
66560;BME280;53413;49.878;8.142;2023-02-26T08:02:04;100152.97;;;7.37;56.03
66560;BME280;53413;49.878;8.142;2023-02-26T08:04:29;100146.50;;;5.76;60.05
66560;BME280;53413;49.878;8.142;2023-02-26T08:06:57;100169.78;;;4.56;62.87
66560;BME280;53413;49.878;8.142;2023-02-26T08:09:23;100169.69;;;3.70;64.65
66560;BME280;53413;49.878;8.142;2023-02-26T08:11:48;100181.16;;;3.30;66.47
66560;BME280;53413;49.878;8.142;2023-02-26T08:14:14;100177.00;;;3.01;67.91
66560;BME280;53413;49.878;8.142;2023-02-26T08:16:39;100186.56;;;2.81;69.45
66560;BME280;53413;49.878;8.142;2023-02-26T08:19:04;100188.31;;;2.72;70.24
66560;BME280;53413;49.878;8.142;2023-02-26T08:21:30;100187.50;;;2.58;71.09
66560;BME280;53413;49.878;8.142;2023-02-26T08:23:55;100191.84;;;2.20;70.83
66560;BME280;53413;49.878;8.142;2023-02-26T08:26:21;100199.66;;;2.09;72.55
66560;BME280;53413;49.878;8.142;2023-02-26T08:28:47;100190.16;;;2.08;72.28
66560;BME280;53413;49.878;8.142;2023-02-26T08:31:13;100208.25;;;2.02;70.74
66560;BME280;53413;49.878;8.142;2023-02-26T08:33:39;100203.94;;;1.89;71.19
66560;BME280;53413;49.878;8.142;2023-02-26T08:36:05;100196.19;;;2.04;70.73
66560;BME280;53413;49.878;8.142;2023-02-26T08:38:31;100212.47;;;2.62;68.71
66560;BME280;53413;49.878;8.142;2023-02-26T08:40:57;100201.66;;;3.69;66.49
66560;BME280;53413;49.878;8.142;2023-02-26T08:43:23;100207.28;;;4.19;65.59
66560;BME280;53413;49.878;8.142;2023-02-26T08:45:51;100216.13;;;3.99;63.22
66560;BME280;53413;49.878;8.142;2023-02-26T08:48:16;100219.81;;;3.63;64.68
66560;BME280;53413;49.878;8.142;2023-02-26T08:50:41;100219.13;;;3.34;65.48
66560;BME280;53413;49.878;8.142;2023-02-26T08:53:07;100226.94;;;3.19;65.41
66560;BME280;53413;49.878;8.142;2023-02-26T08:55:32;100234.75;;;3.13;66.76
66560;BME280;53413;49.878;8.142;2023-02-26T08:57:58;100233.94;;;2.95;66.32
66560;BME280;53413;49.878;8.142;2023-02-26T09:00:23;100258.16;;;2.75;66.66
66560;BME280;53413;49.878;8.142;2023-02-26T09:02:49;100234.03;;;2.70;67.37
66560;BME280;53413;49.878;8.142;2023-02-26T09:05:14;100234.84;;;2.91;67.09
66560;BME280;53413;49.878;8.142;2023-02-26T09:07:41;100240.00;;;2.89;66.85
66560;BME280;53413;49.878;8.142;2023-02-26T09:10:06;100241.66;;;3.11;67.33
66560;BME280;53413;49.878;8.142;2023-02-26T09:12:33;100242.53;;;3.10;66.79
66560;BME280;53413;49.878;8.142;2023-02-26T09:15:02;100245.06;;;3.25;67.50
66560;BME280;53413;49.878;8.142;2023-02-26T09:17:28;100263.09;;;3.50;66.88
66560;BME280;53413;49.878;8.142;2023-02-26T09:19:54;100258.81;;;3.41;66.79
66560;BME280;53413;49.878;8.142;2023-02-26T09:22:19;100256.31;;;3.22;66.89
66560;BME280;53413;49.878;8.142;2023-02-26T09:24:45;100263.19;;;3.30;66.20
66560;BME280;53413;49.878;8.142;2023-02-26T09:27:10;100255.81;;;4.08;66.70
66560;BME280;53413;49.878;8.142;2023-02-26T09:29:35;100253.44;;;4.80;64.29
66560;BME280;53413;49.878;8.142;2023-02-26T09:32:01;100270.88;;;5.43;62.71
66560;BME280;53413;49.878;8.142;2023-02-26T09:34:29;100261.03;;;4.95;61.56
66560;BME280;53413;49.878;8.142;2023-02-26T09:36:55;100265.19;;;4.26;63.66
66560;BME280;53413;49.878;8.142;2023-02-26T09:39:20;100271.41;;;4.03;64.59
66560;BME280;53413;49.878;8.142;2023-02-26T09:41:53;100272.00;;;4.38;63.85
66560;BME280;53413;49.878;8.142;2023-02-26T09:44:26;100269.75;;;4.89;60.71
66560;BME280;53413;49.878;8.142;2023-02-26T09:52:52;100277.63;;;3.76;61.14
66560;BME280;53413;49.878;8.142;2023-02-26T09:55:29;100288.94;;;3.59;61.96
66560;BME280;53413;49.878;8.142;2023-02-26T09:58:01;100278.38;;;3.95;63.13
66560;BME280;53413;49.878;8.142;2023-02-26T10:00:36;100286.19;;;3.89;61.72
66560;BME280;53413;49.878;8.142;2023-02-26T10:03:20;100282.09;;;3.49;61.87
66560;BME280;53413;49.878;8.142;2023-02-26T10:05:58;100304.44;;;3.70;61.73
66560;BME280;53413;49.878;8.142;2023-02-26T10:08:40;100293.00;;;4.05;61.30
66560;BME280;53413;49.878;8.142;2023-02-26T10:11:19;100299.56;;;4.50;61.13
66560;BME280;53413;49.878;8.142;2023-02-26T10:16:18;100320.63;;;4.11;60.52
66560;BME280;53413;49.878;8.142;2023-02-26T10:19:25;100308.69;;;3.83;61.80
66560;BME280;53413;49.878;8.142;2023-02-26T10:24:20;100310.28;;;4.05;61.71
66560;BME280;53413;49.878;8.142;2023-02-26T10:26:55;100306.81;;;4.09;60.62
66560;BME280;53413;49.878;8.142;2023-02-26T10:29:27;100315.56;;;3.91;61.13
66560;BME280;53413;49.878;8.142;2023-02-26T10:32:00;100318.31;;;3.55;62.11
66560;BME280;53413;49.878;8.142;2023-02-26T10:34:38;100318.44;;;3.29;63.06
66560;BME280;53413;49.878;8.142;2023-02-26T10:37:17;100330.56;;;3.02;62.01
66560;BME280;53413;49.878;8.142;2023-02-26T10:39:48;100326.34;;;2.64;63.38
66560;BME280;53413;49.878;8.142;2023-02-26T10:42:21;100334.09;;;2.40;63.86
66560;BME280;53413;49.878;8.142;2023-02-26T10:48:07;100334.09;;;2.43;64.47
66560;BME280;53413;49.878;8.142;2023-02-26T10:50:35;100333.22;;;2.47;65.07
66560;BME280;53413;49.878;8.142;2023-02-26T10:53:02;100334.97;;;2.70;65.32
66560;BME280;53413;49.878;8.142;2023-02-26T10:55:51;100332.31;;;2.98;64.28
66560;BME280;53413;49.878;8.142;2023-02-26T10:58:23;100338.34;;;3.10;63.22
66560;BME280;53413;49.878;8.142;2023-02-26T11:00:52;100357.31;;;3.08;63.46
66560;BME280;53413;49.878;8.142;2023-02-26T11:03:25;100346.09;;;3.13;64.10
66560;BME280;53413;49.878;8.142;2023-02-26T11:05:53;100349.53;;;3.21;64.08
66560;BME280;53413;49.878;8.142;2023-02-26T11:08:24;100348.69;;;3.23;63.87
66560;BME280;53413;49.878;8.142;2023-02-26T11:10:57;100349.56;;;3.18;63.89
66560;BME280;53413;49.878;8.142;2023-02-26T11:13:25;100338.34;;;3.10;63.60
66560;BME280;53413;49.878;8.142;2023-02-26T11:15:54;100347.81;;;3.23;62.80
66560;BME280;53413;49.878;8.142;2023-02-26T11:18:29;100352.03;;;3.52;62.66
66560;BME280;53413;49.878;8.142;2023-02-26T11:20:58;100350.13;;;3.87;62.28
66560;BME280;53413;49.878;8.142;2023-02-26T11:23:26;100351.84;;;3.92;60.94
66560;BME280;53413;49.878;8.142;2023-02-26T11:25:57;100350.09;;;3.97;61.25
66560;BME280;53413;49.878;8.142;2023-02-26T11:28:37;100352.63;;;4.04;60.34
66560;BME280;53413;49.878;8.142;2023-02-26T11:31:09;100348.25;;;4.16;60.69
66560;BME280;53413;49.878;8.142;2023-02-26T11:33:39;100348.22;;;4.18;59.71
66560;BME280;53413;49.878;8.142;2023-02-26T11:36:14;100352.69;;;3.94;60.53
66560;BME280;53413;49.878;8.142;2023-02-26T11:38:43;100351.97;;;3.72;60.55
66560;BME280;53413;49.878;8.142;2023-02-26T11:41:10;100354.63;;;3.49;61.40
66560;BME280;53413;49.878;8.142;2023-02-26T11:43:48;100352.94;;;3.32;61.64
66560;BME280;53413;49.878;8.142;2023-02-26T11:46:23;100352.97;;;3.29;61.95
66560;BME280;53413;49.878;8.142;2023-02-26T11:48:52;100344.38;;;3.19;60.93
66560;BME280;53413;49.878;8.142;2023-02-26T11:51:20;100346.94;;;3.24;61.45
66560;BME280;53413;49.878;8.142;2023-02-26T11:53:50;100359.00;;;3.31;61.46
66560;BME280;53413;49.878;8.142;2023-02-26T11:56:34;100350.38;;;3.28;61.41
66560;BME280;53413;49.878;8.142;2023-02-26T11:59:06;100351.25;;;3.30;61.49
66560;BME280;53413;49.878;8.142;2023-02-26T12:01:35;100354.69;;;3.35;61.41
66560;BME280;53413;49.878;8.142;2023-02-26T12:04:02;100352.84;;;3.62;61.09
66560;BME280;53413;49.878;8.142;2023-02-26T12:06:28;100359.59;;;3.95;60.58
66560;BME280;53413;49.878;8.142;2023-02-26T12:08:53;100348.34;;;4.03;59.96
66560;BME280;53413;49.878;8.142;2023-02-26T12:11:56;100357.88;;;3.97;60.12
66560;BME280;53413;49.878;8.142;2023-02-26T12:19:46;100353.66;;;3.78;61.69
66560;BME280;53413;49.878;8.142;2023-02-26T12:39:41;100348.84;;;4.56;59.50
66560;BME280;53413;49.878;8.142;2023-02-26T12:48:06;100346.00;;;4.84;57.94
66560;BME280;53413;49.878;8.142;2023-02-26T12:53:15;100351.56;;;4.34;58.11
66560;BME280;53413;49.878;8.142;2023-02-26T12:55:54;100344.56;;;4.49;59.03
66560;BME280;53413;49.878;8.142;2023-02-26T13:04:21;100353.78;;;4.85;58.46
66560;BME280;53413;49.878;8.142;2023-02-26T13:09:50;100358.88;;;4.95;57.46
66560;BME280;53413;49.878;8.142;2023-02-26T13:18:09;100366.00;;;4.74;58.48
66560;BME280;53413;49.878;8.142;2023-02-26T13:20:39;100389.44;;;4.66;57.92
66560;BME280;53413;49.878;8.142;2023-02-26T13:23:13;100370.53;;;4.47;58.11
66560;BME280;53413;49.878;8.142;2023-02-26T13:28:47;100380.22;;;4.20;58.72
66560;BME280;53413;49.878;8.142;2023-02-26T13:31:22;100375.09;;;4.11;59.06
66560;BME280;53413;49.878;8.142;2023-02-26T13:33:50;100375.16;;;3.98;59.11
66560;BME280;53413;49.878;8.142;2023-02-26T13:36:18;100378.59;;;3.99;59.61
66560;BME280;53413;49.878;8.142;2023-02-26T13:38:58;100369.91;;;4.08;59.38
66560;BME280;53413;49.878;8.142;2023-02-26T13:41:59;100373.28;;;4.22;59.35
66560;BME280;53413;49.878;8.142;2023-02-26T13:50:02;100361.22;;;4.15;59.72
66560;BME280;53413;49.878;8.142;2023-02-26T13:52:33;100367.28;;;4.12;60.42
66560;BME280;53413;49.878;8.142;2023-02-26T13:55:02;100373.38;;;4.08;59.37
66560;BME280;53413;49.878;8.142;2023-02-26T14:02:44;100368.78;;;4.47;57.74
66560;BME280;53413;49.878;8.142;2023-02-26T14:05:51;100362.59;;;4.66;58.74
66560;BME280;53413;49.878;8.142;2023-02-26T14:13:19;100382.56;;;4.60;58.84
66560;BME280;53413;49.878;8.142;2023-02-26T14:16:19;100366.94;;;4.62;59.83
66560;BME280;53413;49.878;8.142;2023-02-26T14:23:55;100373.16;;;4.41;60.38
66560;BME280;53413;49.878;8.142;2023-02-26T14:26:22;100397.38;;;4.40;59.43
66560;BME280;53413;49.878;8.142;2023-02-26T14:32:05;100393.25;;;4.11;59.75
66560;BME280;53413;49.878;8.142;2023-02-26T14:34:50;100399.44;;;3.80;60.00
66560;BME280;53413;49.878;8.142;2023-02-26T14:37:19;100395.22;;;3.54;61.11
66560;BME280;53413;49.878;8.142;2023-02-26T14:42:24;100395.22;;;3.47;61.96
66560;BME280;53413;49.878;8.142;2023-02-26T14:45:02;100393.50;;;3.44;62.58
66560;BME280;53413;49.878;8.142;2023-02-26T14:47:31;100401.25;;;3.50;62.64
66560;BME280;53413;49.878;8.142;2023-02-26T14:49:56;100405.50;;;3.76;63.75
66560;BME280;53413;49.878;8.142;2023-02-26T15:08:48;100411.34;;;4.20;62.15
66560;BME280;53413;49.878;8.142;2023-02-26T15:19:29;100413.94;;;4.17;59.70
66560;BME280;53413;49.878;8.142;2023-02-26T15:24:35;100421.16;;;3.48;60.61
66560;BME280;53413;49.878;8.142;2023-02-26T15:27:03;100424.63;;;3.33;61.57
66560;BME280;53413;49.878;8.142;2023-02-26T15:29:36;100424.63;;;3.32;61.43
66560;BME280;53413;49.878;8.142;2023-02-26T15:32:22;100422.06;;;3.30;62.39
66560;BME280;53413;49.878;8.142;2023-02-26T15:34:56;100422.03;;;3.32;60.56
66560;BME280;53413;49.878;8.142;2023-02-26T15:37:24;100430.66;;;3.32;61.56
66560;BME280;53413;49.878;8.142;2023-02-26T15:39:54;100439.28;;;3.34;61.57